Map

Track Data

SID SEASON NUMBER BASIN SUBBASIN NAME ISO_TIME NATURE LAT LON WMO_WIND WMO_PRES WMO_AGENCY TRACK_TYPE DIST2LAND LANDFALL IFLAG USA_AGENCY USA_ATCF_ID USA_LAT USA_LON USA_RECORD USA_STATUS USA_WIND USA_PRES USA_SSHS USA_R34_NE USA_R34_SE USA_R34_SW USA_R34_NW USA_R50_NE USA_R50_SE USA_R50_SW USA_R50_NW USA_R64_NE USA_R64_SE USA_R64_SW USA_R64_NW USA_POCI USA_ROCI USA_RMW USA_EYE TOKYO_LAT TOKYO_LON TOKYO_GRADE TOKYO_WIND TOKYO_PRES TOKYO_R50_DIR TOKYO_R50_LONG TOKYO_R50_SHORT TOKYO_R30_DIR TOKYO_R30_LONG TOKYO_R30_SHORT TOKYO_LAND CMA_LAT CMA_LON CMA_CAT CMA_WIND CMA_PRES HKO_LAT HKO_LON HKO_CAT HKO_WIND HKO_PRES NEWDELHI_LAT NEWDELHI_LON NEWDELHI_GRADE NEWDELHI_WIND NEWDELHI_PRES NEWDELHI_CI NEWDELHI_DP NEWDELHI_POCI REUNION_LAT REUNION_LON REUNION_TYPE REUNION_WIND REUNION_PRES REUNION_TNUM REUNION_CI REUNION_RMW REUNION_R34_NE REUNION_R34_SE REUNION_R34_SW REUNION_R34_NW REUNION_R50_NE REUNION_R50_SE REUNION_R50_SW REUNION_R50_NW REUNION_R64_NE REUNION_R64_SE REUNION_R64_SW REUNION_R64_NW BOM_LAT BOM_LON BOM_TYPE BOM_WIND BOM_PRES BOM_TNUM BOM_CI BOM_RMW BOM_R34_NE BOM_R34_SE BOM_R34_SW BOM_R34_NW BOM_R50_NE BOM_R50_SE BOM_R50_SW BOM_R50_NW BOM_R64_NE BOM_R64_SE BOM_R64_SW BOM_R64_NW BOM_ROCI BOM_POCI BOM_EYE BOM_POS_METHOD BOM_PRES_METHOD NADI_LAT NADI_LON NADI_CAT NADI_WIND NADI_PRES WELLINGTON_LAT WELLINGTON_LON WELLINGTON_WIND WELLINGTON_PRES DS824_LAT DS824_LON DS824_STAGE DS824_WIND DS824_PRES TD9636_LAT TD9636_LON TD9636_STAGE TD9636_WIND TD9636_PRES TD9635_LAT TD9635_LON TD9635_WIND TD9635_PRES TD9635_ROCI NEUMANN_LAT NEUMANN_LON NEUMANN_CLASS NEUMANN_WIND NEUMANN_PRES MLC_LAT MLC_LON MLC_CLASS MLC_WIND MLC_PRES USA_GUST BOM_GUST BOM_GUST_PER REUNION_GUST REUNION_GUST_PER USA_SEAHGT USA_SEARAD_NE USA_SEARAD_SE USA_SEARAD_SW USA_SEARAD_NW STORM_SPEED STORM_DIR
1974294N15228 1974 121 EP MM ROSALIE 1974-10-21 00:00:00 TS 15.3000 -132.300 35 hurdat_epa main 2258 2258 O________OO___ hurdat_epa EP171974 15.3000 -132.300 TS 35 0 15.3000 -132.300 TC 35 15.3000 -132.300 2 40 10 265
1974294N15228 1974 121 EP MM ROSALIE 1974-10-21 03:00:00 TS 15.2572 -132.822 main 2299 2299 P________PP___ EP171974 15.2603 -132.828 TS 42 0 15.2603 -132.828 TC 42 15.2450 -132.800 2 43 10 264
1974294N15228 1974 121 EP MM ROSALIE 1974-10-21 06:00:00 TS 15.1963 -133.292 50 hurdat_epa main 2330 2302 O________OP___ hurdat_epa EP171974 15.2000 -133.300 TS 50 0 15.2000 -133.300 TC 50 15.1814 -133.260 2 47 8 259
1974294N15228 1974 121 EP MM ROSALIE 1974-10-21 09:00:00 TS 15.1063 -133.662 main 2292 2274 P________PP___ EP171974 15.1074 -133.668 TS 52 0 15.1074 -133.668 TC 52 15.1020 -133.640 2 51 6 252
1974294N15228 1974 121 EP MM ROSALIE 1974-10-21 12:00:00 TS 15.0000 -133.900 55 hurdat_epa main 2274 2264 O________OO___ hurdat_epa EP171974 15.0000 -133.900 TS 55 0 15.0000 -133.900 TC 55 15.0000 -133.900 2 55 4 238
1974294N15228 1974 121 EP MM ROSALIE 1974-10-21 15:00:00 TS 14.9005 -133.999 main 2267 2267 P________PP___ EP171974 14.9074 -133.995 TS 55 0 14.9074 -133.995 TC 55 14.8727 -134.016 2 53 2 206
1974294N15228 1974 121 EP MM ROSALIE 1974-10-21 18:00:00 TS 14.7869 -134.006 55 hurdat_epa main 2270 2270 O________OP___ hurdat_epa EP171974 14.8000 -134.000 TS 55 0 14.8000 -134.000 TC 55 14.7345 -134.032 2 52 3 0
1974294N15228 1974 121 EP MM ROSALIE 1974-10-21 21:00:00 TS 14.6348 -133.995 main 2276 2276 P________PP___ EP171974 14.6425 -133.992 TS 55 0 14.6425 -133.992 TC 55 14.6041 -134.007 2 51 3 175
1974294N15228 1974 121 EP MM ROSALIE 1974-10-22 00:00:00 TS 14.5000 -134.000 55 hurdat_epa main 2280 2273 O________OO___ hurdat_epa EP171974 14.5000 -134.000 TS 55 0 14.5000 -134.000 TC 55 14.5000 -134.000 2 50 2 202
1974294N15228 1974 121 EP MM ROSALIE 1974-10-22 03:00:00 TS 14.4377 -134.073 main 2273 2262 P________PP___ EP171974 14.4275 -134.078 TS 52 0 14.4275 -134.078 TC 52 14.4785 -134.055 2 50 2 245
1974294N15228 1974 121 EP MM ROSALIE 1974-10-22 06:00:00 TS 14.4159 -134.189 50 hurdat_epa main 2262 2252 O________OP___ hurdat_epa EP171974 14.4000 -134.200 TS 50 0 14.4000 -134.200 TC 50 14.4796 -134.144 2 50 2 268
1974294N15228 1974 121 EP MM ROSALIE 1974-10-22 09:00:00 TS 14.4311 -134.307 main 2252 2232 P________PP___ EP171974 14.4224 -134.312 TS 50 0 14.4224 -134.312 TC 50 14.4659 -134.286 2 50 3 267
1974294N15228 1974 121 EP MM ROSALIE 1974-10-22 12:00:00 TS 14.4000 -134.500 50 hurdat_epa main 2232 2204 O________OO___ hurdat_epa EP171974 14.4000 -134.500 TS 50 0 14.4000 -134.500 TC 50 14.4000 -134.500 2 50 5 248
1974294N15228 1974 121 EP MM ROSALIE 1974-10-22 15:00:00 TS 14.2333 -134.815 main 2208 2174 P________PP___ EP171974 14.2375 -134.813 TS 45 0 14.2375 -134.813 TC 45 14.2167 -134.824 2 46 8 239
1974294N15228 1974 121 EP MM ROSALIE 1974-10-22 18:00:00 TS 13.9961 -135.203 40 hurdat_epa main 2174 2141 O________OP___ hurdat_epa EP171974 14.0000 -135.200 TS 40 0 14.0000 -135.200 TC 40 13.9806 -135.213 2 42 9 238
1974294N15228 1974 121 EP MM ROSALIE 1974-10-22 21:00:00 TS 13.7399 -135.616 main 2145 2112 P________PP___ EP171974 13.7426 -135.615 TS 37 0 13.7426 -135.615 TC 37 13.7292 -135.621 2 38 9 237
1974294N15228 1974 121 EP MM ROSALIE 1974-10-23 00:00:00 TS 13.5000 -136.000 35 hurdat_epa main 2112 2090 O________OO___ hurdat_epa EP171974 13.5000 -136.000 TS 35 0 13.5000 -136.000 TC 35 13.5000 -136.000 2 35 8 237
1974294N15228 1974 121 EP MM ROSALIE 1974-10-23 03:00:00 TS 13.3270 -136.267 main 2090 2074 P________PP___ EP171974 13.3274 -136.272 TS 35 0 13.3274 -136.272 TC 35 13.3253 -136.245 2 35 6 238
1974294N15228 1974 121 EP MM ROSALIE 1974-10-23 06:00:00 TS 13.1963 -136.492 35 hurdat_epa main 2074 2059 O________OP___ hurdat_epa EP171974 13.2000 -136.500 TS 35 0 13.2000 -136.500 TC 35 13.1816 -136.462 2 35 5 240
1974294N15228 1974 121 EP MM ROSALIE 1974-10-23 09:00:00 TS 13.0823 -136.710 main 2059 2033 P________PP___ EP171974 13.0848 -136.712 TS 35 0 13.0848 -136.712 TC 35 13.0721 -136.698 2 35 5 248
1974294N15228 1974 121 EP MM ROSALIE 1974-10-23 12:00:00 TS 13.0000 -137.000 35 hurdat_epa main 2033 1998 O________OO___ hurdat_epa EP171974 13.0000 -137.000 TS 35 0 13.0000 -137.000 TC 35 13.0000 -137.000 2 35 7 258
1974294N15228 1974 121 EP MM ROSALIE 1974-10-23 15:00:00 TS 12.9353 -137.450 main 1988 1948 P________PP___ EP171974 12.9276 -137.463 TS 30 -1 12.9276 -137.463 TC 30 12.9659 -137.402 2 32 10 265
1974294N15228 1974 121 EP MM ROSALIE 1974-10-23 18:00:00 TS 12.9123 -137.977 25 hurdat_epa main 1938 1889 O________OP___ hurdat_epa EP171974 12.9000 -138.000 TD 25 -1 12.9000 -138.000 TC 25 12.9616 -137.887 2 30 10 270
1974294N15228 1974 121 EP MM ROSALIE 1974-10-23 21:00:00 TS 12.9413 -138.496 main 1889 1835 P________PP___ EP171974 12.9326 -138.512 TD 25 -1 12.9326 -138.512 TC 25 12.9764 -138.430 2 27 10 275
1974294N15228 1974 121 EP MM ROSALIE 1974-10-24 00:00:00 TS 13.0000 -139.000 25 hurdat_epa main 1835 O________OO___ hurdat_epa EP171974 13.0000 -139.000 TD 25 -1 13.0000 -139.000 TC 25 13.0000 -139.000 1 25 10 277

About IBTrACS Database

This database is a web-friendly format of International Best Track Archive for Climate Stewardship (IBTrACS), a global best track data archive curated by NOAA dating back to 1842.

Updated: 2021-12-03